createdAt,value
2022-12-16T00:00:02.275Z,2.14
2022-12-16T00:02:33.557Z,2.14
2022-12-16T00:05:00.339Z,2.16
2022-12-16T00:07:27.214Z,2.21
2022-12-16T00:09:54.002Z,2.31
2022-12-16T00:12:21.421Z,2.30
2022-12-16T00:14:49.015Z,2.29
2022-12-16T00:17:15.797Z,2.30
2022-12-16T00:19:42.529Z,2.21
2022-12-16T00:22:09.518Z,2.20
2022-12-16T00:24:36.436Z,2.07
2022-12-16T00:27:03.872Z,2.15
2022-12-16T00:29:30.572Z,2.06
2022-12-16T00:31:57.451Z,2.03
2022-12-16T00:34:24.260Z,1.99
2022-12-16T00:36:51.013Z,1.86
2022-12-16T00:39:17.801Z,1.88
2022-12-16T00:41:44.606Z,1.85
2022-12-16T00:44:11.485Z,1.86
2022-12-16T00:46:38.283Z,1.78
2022-12-16T00:49:05.109Z,1.73
2022-12-16T00:51:31.873Z,1.76
2022-12-16T00:53:58.731Z,1.83
2022-12-16T00:56:25.539Z,1.83
2022-12-16T00:58:52.412Z,1.87
2022-12-16T01:01:19.518Z,1.98
2022-12-16T01:03:46.690Z,1.99
2022-12-16T01:06:17.037Z,1.89
2022-12-16T01:08:48.941Z,1.97
2022-12-16T01:11:18.299Z,1.80
2022-12-16T01:13:46.393Z,1.74
2022-12-16T01:16:13.210Z,1.79
2022-12-16T01:18:39.930Z,1.93
2022-12-16T01:21:08.532Z,1.86
2022-12-16T01:23:36.183Z,1.84
2022-12-16T01:26:03.771Z,1.80
2022-12-16T01:28:31.163Z,1.92
2022-12-16T01:31:01.809Z,1.84
2022-12-16T01:33:33.823Z,1.82
2022-12-16T01:36:02.988Z,1.94
2022-12-16T01:38:30.282Z,1.88
2022-12-16T01:40:57.562Z,1.89
2022-12-16T01:43:30.510Z,1.90
2022-12-16T01:46:23.332Z,1.86
2022-12-16T01:49:00.898Z,1.91
2022-12-16T01:51:36.298Z,1.91
2022-12-16T01:54:12.332Z,1.93
2022-12-16T01:56:45.698Z,1.91
2022-12-16T01:59:14.752Z,1.90
2022-12-16T02:01:41.954Z,1.95
2022-12-16T02:04:09.020Z,1.99
2022-12-16T02:06:35.752Z,2.00
2022-12-16T02:09:07.850Z,2.15
2022-12-16T02:12:02.979Z,2.02
2022-12-16T02:15:00.487Z,1.95
2022-12-16T02:17:52.723Z,2.01
2022-12-16T02:20:58.113Z,1.96
2022-12-16T02:23:31.019Z,2.05
2022-12-16T02:26:16.630Z,1.98
2022-12-16T02:29:21.259Z,1.96
2022-12-16T02:32:24.967Z,1.94
2022-12-16T02:35:18.519Z,2.00
2022-12-16T02:38:06.172Z,2.06
2022-12-16T02:40:55.601Z,2.11
2022-12-16T02:43:39.823Z,2.22
2022-12-16T02:46:08.251Z,2.36
2022-12-16T02:48:35.345Z,2.26
2022-12-16T02:51:02.248Z,2.15
2022-12-16T02:53:31.484Z,2.11
2022-12-16T02:56:18.624Z,2.10
2022-12-16T02:58:53.064Z,2.13
2022-12-16T03:01:46.276Z,2.18
2022-12-16T03:04:16.216Z,2.11
2022-12-16T03:06:47.900Z,2.12
2022-12-16T03:09:18.973Z,2.15
2022-12-16T03:11:48.247Z,2.23
2022-12-16T03:14:18.876Z,2.13
2022-12-16T03:16:47.063Z,2.18
2022-12-16T03:19:14.512Z,2.22
2022-12-16T03:22:09.204Z,2.22
2022-12-16T03:24:36.789Z,2.13
2022-12-16T03:27:20.807Z,2.21
2022-12-16T03:29:58.130Z,2.20
2022-12-16T03:32:31.165Z,2.23
2022-12-16T03:35:10.686Z,2.15
2022-12-16T03:37:38.358Z,2.25
2022-12-16T03:40:08.519Z,2.29
2022-12-16T03:42:36.683Z,2.25
2022-12-16T03:45:05.147Z,2.12
2022-12-16T03:47:32.190Z,2.16
2022-12-16T03:49:58.936Z,2.30
2022-12-16T03:52:25.683Z,2.17
2022-12-16T03:54:52.411Z,2.26
2022-12-16T03:57:19.367Z,2.22
2022-12-16T03:59:46.201Z,2.28
2022-12-16T04:02:13.014Z,2.38
2022-12-16T04:04:39.911Z,2.34
2022-12-16T04:07:21.740Z,2.42
2022-12-16T04:09:49.906Z,2.49
2022-12-16T04:12:35.488Z,2.50
2022-12-16T04:15:38.039Z,2.53
2022-12-16T04:18:24.422Z,2.44
2022-12-16T04:21:14.159Z,2.46
2022-12-16T04:24:11.658Z,2.50
2022-12-16T04:26:56.746Z,2.59
2022-12-16T04:29:24.203Z,2.57
2022-12-16T04:31:52.193Z,2.49
2022-12-16T04:34:29.521Z,2.43
2022-12-16T04:37:20.049Z,2.53
2022-12-16T04:40:06.154Z,2.36
2022-12-16T04:42:51.911Z,2.40
2022-12-16T04:45:37.176Z,2.40
2022-12-16T04:48:23.012Z,2.44
2022-12-16T04:51:08.516Z,2.51
2022-12-16T04:53:53.988Z,2.63
2022-12-16T04:56:39.251Z,2.62
2022-12-16T04:59:24.716Z,2.65
2022-12-16T05:02:10.148Z,2.66
2022-12-16T05:04:55.382Z,2.71
2022-12-16T05:07:41.849Z,2.81
2022-12-16T05:10:27.833Z,2.88
2022-12-16T05:13:13.782Z,2.79
2022-12-16T05:15:59.600Z,2.87
2022-12-16T05:18:44.805Z,2.93
2022-12-16T05:21:30.003Z,2.89
2022-12-16T05:24:15.029Z,2.86
2022-12-16T05:27:00.089Z,2.96
2022-12-16T05:29:45.464Z,2.97
2022-12-16T05:32:31.125Z,3.01
2022-12-16T05:35:16.875Z,3.02
2022-12-16T05:38:02.132Z,3.05
2022-12-16T05:40:47.358Z,3.19
2022-12-16T05:43:33.023Z,3.18
2022-12-16T05:46:18.615Z,3.20
2022-12-16T05:49:04.320Z,3.18
2022-12-16T05:51:49.411Z,3.22
2022-12-16T05:54:34.610Z,3.22
2022-12-16T05:57:19.782Z,3.26
2022-12-16T06:00:05.009Z,3.28
2022-12-16T06:02:57.705Z,3.28
2022-12-16T06:05:42.868Z,3.25
2022-12-16T06:08:28.295Z,3.38
2022-12-16T06:11:13.543Z,3.48
2022-12-16T06:13:58.763Z,3.33
2022-12-16T06:16:44.195Z,3.30
2022-12-16T06:19:30.033Z,3.25
2022-12-16T06:22:15.491Z,3.22
2022-12-16T06:25:01.155Z,3.22
2022-12-16T06:27:46.727Z,3.26
2022-12-16T06:30:32.424Z,3.24
2022-12-16T06:33:17.624Z,3.30
2022-12-16T06:36:03.009Z,3.34
2022-12-16T06:38:48.200Z,3.29
2022-12-16T06:41:33.400Z,3.34
2022-12-16T06:44:19.047Z,3.43
2022-12-16T06:47:04.218Z,3.50
2022-12-16T06:49:49.362Z,3.42
2022-12-16T06:52:34.753Z,3.34
2022-12-16T06:55:19.950Z,3.42
2022-12-16T06:58:09.754Z,3.48
2022-12-16T07:00:55.290Z,3.51
2022-12-16T07:03:40.963Z,3.57
2022-12-16T07:06:26.959Z,3.57
2022-12-16T07:09:12.780Z,3.54
2022-12-16T07:12:01.103Z,3.57
2022-12-16T07:14:46.389Z,3.60
2022-12-16T07:17:31.592Z,3.61
2022-12-16T07:20:19.455Z,3.47
2022-12-16T07:23:12.154Z,3.52
2022-12-16T07:26:03.149Z,3.52
2022-12-16T07:28:48.288Z,3.59
2022-12-16T07:31:33.944Z,3.55
2022-12-16T07:34:19.212Z,3.50
2022-12-16T07:37:04.560Z,3.54
2022-12-16T07:39:54.560Z,3.53
2022-12-16T07:42:40.966Z,3.63
2022-12-16T07:45:26.940Z,3.74
2022-12-16T07:48:12.304Z,3.79
2022-12-16T07:50:57.795Z,3.87
2022-12-16T07:53:43.816Z,3.96
2022-12-16T07:56:29.618Z,3.96
2022-12-16T07:59:14.926Z,3.94
2022-12-16T08:02:00.502Z,3.94
2022-12-16T08:04:46.572Z,3.98
2022-12-16T08:07:32.007Z,4.08
2022-12-16T08:10:17.909Z,4.19
2022-12-16T08:13:05.843Z,4.08
2022-12-16T08:15:54.280Z,4.09
2022-12-16T08:18:39.568Z,4.10
2022-12-16T08:21:26.471Z,4.06
2022-12-16T08:24:11.800Z,4.08
2022-12-16T08:26:57.212Z,4.20
2022-12-16T08:29:44.730Z,4.32
2022-12-16T08:32:31.346Z,4.45
2022-12-16T08:35:17.288Z,4.49
2022-12-16T08:38:02.759Z,4.52
2022-12-16T08:40:48.322Z,4.35
2022-12-16T08:43:34.090Z,4.32
2022-12-16T08:46:19.612Z,4.42
2022-12-16T08:49:05.201Z,4.53
2022-12-16T08:51:50.519Z,4.46
2022-12-16T08:54:36.332Z,4.29
2022-12-16T08:57:22.213Z,4.27
2022-12-16T09:00:07.765Z,4.13
2022-12-16T09:02:53.331Z,4.06
2022-12-16T09:05:41.108Z,4.09
2022-12-16T09:08:26.464Z,4.18
2022-12-16T09:11:11.898Z,4.31
2022-12-16T09:13:57.182Z,4.38
2022-12-16T09:16:42.954Z,4.48
2022-12-16T09:19:29.855Z,4.54
2022-12-16T09:22:15.311Z,4.37
2022-12-16T09:25:00.962Z,4.23
2022-12-16T09:27:46.313Z,4.22
2022-12-16T09:30:32.056Z,4.33
2022-12-16T09:33:17.656Z,4.40
2022-12-16T09:36:02.984Z,4.50
2022-12-16T09:38:48.624Z,4.61
2022-12-16T09:41:50.988Z,4.56
2022-12-16T09:45:26.021Z,4.57
2022-12-16T09:48:25.536Z,4.66
2022-12-16T09:51:14.657Z,4.76
2022-12-16T09:54:02.043Z,4.75
2022-12-16T09:56:55.150Z,4.63
2022-12-16T09:59:46.089Z,4.38
2022-12-16T10:02:37.439Z,4.21
2022-12-16T10:05:28.694Z,4.35
2022-12-16T10:08:39.185Z,4.37
2022-12-16T10:11:34.810Z,4.30
2022-12-16T10:14:35.837Z,4.39
2022-12-16T10:17:23.742Z,4.54
2022-12-16T10:20:09.977Z,4.68
2022-12-16T10:23:04.925Z,4.77
2022-12-16T10:26:12.620Z,4.82
2022-12-16T10:29:01.386Z,5.00
2022-12-16T10:31:47.274Z,5.04
2022-12-16T10:34:44.356Z,5.01
2022-12-16T10:37:44.230Z,5.00
2022-12-16T10:40:37.519Z,5.08
2022-12-16T10:43:25.640Z,4.80
2022-12-16T10:46:12.804Z,5.10
2022-12-16T10:48:58.295Z,5.11
2022-12-16T10:51:47.332Z,5.08
2022-12-16T10:54:50.842Z,4.88
2022-12-16T10:58:06.564Z,4.53
2022-12-16T11:01:39.423Z,4.49
2022-12-16T11:04:55.977Z,4.54
2022-12-16T11:07:55.389Z,4.71
2022-12-16T11:10:43.524Z,4.67
2022-12-16T11:13:37.464Z,4.54
2022-12-16T11:16:34.327Z,4.55
2022-12-16T11:19:20.395Z,4.59
2022-12-16T11:22:08.877Z,4.55
2022-12-16T11:24:54.443Z,4.55
2022-12-16T11:27:43.731Z,4.36
2022-12-16T11:30:38.711Z,4.38
2022-12-16T11:33:39.667Z,4.38
2022-12-16T11:36:30.184Z,4.52
2022-12-16T11:39:16.443Z,4.33
2022-12-16T11:42:06.191Z,4.43
2022-12-16T11:45:05.468Z,4.34
2022-12-16T11:48:04.503Z,4.25
2022-12-16T11:50:54.002Z,4.19
2022-12-16T11:53:46.944Z,4.26
2022-12-16T11:56:36.598Z,4.37
2022-12-16T11:59:29.801Z,4.35
2022-12-16T12:02:19.282Z,4.18
2022-12-16T12:05:06.982Z,4.34
2022-12-16T12:08:02.993Z,4.49
2022-12-16T12:10:53.047Z,4.34
2022-12-16T12:13:50.144Z,4.19
2022-12-16T12:16:45.182Z,4.11
2022-12-16T12:19:43.818Z,4.03
2022-12-16T12:22:47.526Z,3.71
2022-12-16T12:25:54.394Z,3.69
2022-12-16T12:28:48.944Z,3.87
2022-12-16T12:31:43.431Z,3.75
2022-12-16T12:34:39.109Z,3.62
2022-12-16T12:38:07.800Z,3.67
2022-12-16T12:42:01.622Z,3.79
2022-12-16T12:45:02.082Z,4.01
2022-12-16T12:47:49.983Z,4.01
2022-12-16T12:50:50.821Z,3.78
2022-12-16T12:54:04.086Z,3.72
2022-12-16T12:57:12.569Z,3.85
2022-12-16T13:00:18.744Z,3.85
2022-12-16T13:03:14.403Z,4.03
2022-12-16T13:06:01.030Z,4.08
2022-12-16T13:09:07.937Z,4.07
2022-12-16T13:11:54.321Z,4.08
2022-12-16T13:14:51.898Z,4.03
2022-12-16T13:17:43.490Z,4.14
2022-12-16T13:20:50.837Z,3.81
2022-12-16T13:24:03.668Z,3.84
2022-12-16T13:26:51.936Z,4.00
2022-12-16T13:29:44.561Z,4.02
2022-12-16T13:32:41.057Z,4.12
2022-12-16T13:35:29.565Z,4.08
2022-12-16T13:38:17.854Z,3.93
2022-12-16T13:41:45.978Z,3.53
2022-12-16T13:44:52.136Z,3.51
2022-12-16T13:47:52.599Z,3.25
2022-12-16T13:51:00.013Z,3.28
2022-12-16T13:53:47.813Z,3.22
2022-12-16T13:56:36.786Z,3.25
2022-12-16T13:59:32.529Z,3.25
2022-12-16T14:02:33.247Z,3.38
2022-12-16T14:05:19.131Z,3.34
2022-12-16T14:08:04.722Z,3.42
2022-12-16T14:10:59.890Z,3.47
2022-12-16T14:13:57.466Z,3.50
2022-12-16T14:17:16.533Z,3.57
2022-12-16T14:20:25.218Z,3.36
2022-12-16T14:23:47.247Z,3.51
2022-12-16T14:26:23.494Z,3.46
2022-12-16T14:29:09.142Z,3.41
2022-12-16T14:31:59.914Z,3.32
2022-12-16T14:34:55.069Z,3.26
2022-12-16T14:37:47.751Z,3.15
2022-12-16T14:40:47.364Z,3.24
2022-12-16T14:43:42.616Z,2.97
2022-12-16T14:46:53.958Z,2.94
2022-12-16T14:49:43.459Z,3.07
2022-12-16T14:52:43.672Z,3.15
2022-12-16T14:55:50.522Z,3.15
2022-12-16T14:58:38.411Z,3.22
2022-12-16T15:01:34.947Z,3.35
2022-12-16T15:04:24.215Z,3.45
2022-12-16T15:07:12.438Z,3.41
2022-12-16T15:10:01.421Z,3.32
2022-12-16T15:12:50.722Z,3.33
2022-12-16T15:16:03.130Z,3.49
2022-12-16T15:19:01.602Z,3.33
2022-12-16T15:21:47.133Z,3.31
2022-12-16T15:24:38.023Z,3.32
2022-12-16T15:27:52.422Z,3.24
2022-12-16T15:30:50.217Z,3.13
2022-12-16T15:33:38.550Z,3.25
2022-12-16T15:36:25.046Z,3.32
2022-12-16T15:39:12.461Z,3.38
2022-12-16T15:41:57.617Z,3.41
2022-12-16T15:44:46.978Z,3.54
2022-12-16T15:47:51.984Z,3.47
2022-12-16T15:50:44.341Z,3.76
2022-12-16T15:53:54.283Z,3.31
2022-12-16T15:56:42.872Z,3.27
2022-12-16T15:59:45.288Z,3.35
2022-12-16T16:02:42.212Z,3.50
2022-12-16T16:05:37.326Z,3.52
2022-12-16T16:08:23.280Z,3.59
2022-12-16T16:11:08.590Z,3.69
2022-12-16T16:13:54.610Z,3.72
2022-12-16T16:16:42.246Z,3.71
2022-12-16T16:19:40.781Z,3.64
2022-12-16T16:22:35.744Z,3.56
2022-12-16T16:25:21.721Z,3.63
2022-12-16T16:28:07.455Z,3.64
2022-12-16T16:30:52.956Z,3.65
2022-12-16T16:33:38.471Z,3.52
2022-12-16T16:36:33.951Z,3.42
2022-12-16T16:39:20.278Z,3.39
2022-12-16T16:42:05.777Z,3.36
2022-12-16T16:44:50.877Z,3.36
2022-12-16T16:47:36.689Z,3.37
2022-12-16T16:50:21.988Z,3.39
2022-12-16T16:53:07.173Z,3.37
2022-12-16T16:55:52.593Z,3.44
2022-12-16T16:58:50.595Z,3.47
2022-12-16T17:01:37.285Z,3.52
2022-12-16T17:04:23.324Z,3.43
2022-12-16T17:07:08.884Z,3.52
2022-12-16T17:09:54.121Z,3.55
2022-12-16T17:12:47.553Z,3.57
2022-12-16T17:15:36.179Z,3.59
2022-12-16T17:18:22.488Z,3.61
2022-12-16T17:21:07.885Z,3.70
2022-12-16T17:23:56.582Z,3.76
2022-12-16T17:26:42.502Z,3.77
2022-12-16T17:29:42.759Z,3.79
2022-12-16T17:32:28.926Z,3.83
2022-12-16T17:35:14.427Z,3.77
2022-12-16T17:37:59.980Z,3.69
2022-12-16T17:40:45.766Z,3.66
2022-12-16T17:43:31.299Z,3.54
2022-12-16T17:46:18.219Z,3.51
2022-12-16T17:49:09.584Z,3.48
2022-12-16T17:51:54.721Z,3.51
2022-12-16T17:54:42.568Z,3.44
2022-12-16T17:57:27.845Z,3.37
2022-12-16T18:00:12.957Z,3.35
2022-12-16T18:02:59.959Z,3.33
2022-12-16T18:05:45.999Z,3.31
2022-12-16T18:08:31.642Z,3.46
2022-12-16T18:11:17.331Z,3.43
2022-12-16T18:14:03.066Z,3.42
2022-12-16T18:16:49.811Z,3.36
2022-12-16T18:19:35.950Z,3.32
2022-12-16T18:22:21.292Z,3.36
2022-12-16T18:25:06.844Z,3.42
2022-12-16T18:27:54.676Z,3.27
2022-12-16T18:30:42.895Z,3.21
2022-12-16T18:33:28.551Z,3.16
2022-12-16T18:36:13.936Z,3.13
2022-12-16T18:38:59.555Z,3.20
2022-12-16T18:41:45.438Z,3.23
2022-12-16T18:44:32.608Z,3.26
2022-12-16T18:47:18.581Z,3.32
2022-12-16T18:50:04.161Z,3.36
2022-12-16T18:52:49.905Z,3.32
2022-12-16T18:55:35.259Z,3.19
2022-12-16T18:58:49.814Z,3.13
2022-12-16T19:01:28.759Z,3.05
2022-12-16T19:04:15.849Z,3.07
2022-12-16T19:07:02.412Z,2.97
2022-12-16T19:09:47.897Z,2.91
2022-12-16T19:12:33.119Z,2.85
2022-12-16T19:15:18.680Z,2.79
2022-12-16T19:18:03.893Z,2.76
2022-12-16T19:20:49.173Z,2.76
2022-12-16T19:23:34.673Z,2.75
2022-12-16T19:26:21.080Z,2.80
2022-12-16T19:29:14.384Z,2.83
2022-12-16T19:31:59.697Z,2.81
2022-12-16T19:34:45.032Z,2.82
2022-12-16T19:37:30.631Z,2.90
2022-12-16T19:40:16.194Z,2.66
2022-12-16T19:43:01.776Z,2.64
2022-12-16T19:45:47.444Z,2.69
2022-12-16T19:48:33.003Z,2.65
2022-12-16T19:51:20.473Z,2.61
2022-12-16T19:54:06.349Z,2.58
2022-12-16T19:56:52.766Z,2.57
2022-12-16T19:59:41.073Z,2.52
2022-12-16T20:02:28.964Z,2.56
2022-12-16T20:05:14.446Z,2.49
2022-12-16T20:07:59.687Z,2.50
2022-12-16T20:10:45.237Z,2.43
2022-12-16T20:13:32.235Z,2.43
2022-12-16T20:16:28.404Z,2.45
2022-12-16T20:19:18.929Z,2.59
2022-12-16T20:22:06.884Z,2.40
2022-12-16T20:24:56.312Z,2.41
2022-12-16T20:27:42.406Z,2.52
2022-12-16T20:30:28.854Z,2.56
2022-12-16T20:33:14.440Z,2.70
2022-12-16T20:35:59.589Z,2.75
2022-12-16T20:38:44.957Z,2.81
2022-12-16T20:41:30.133Z,2.79
2022-12-16T20:44:15.447Z,2.74
2022-12-16T20:47:00.829Z,2.73
2022-12-16T20:49:46.008Z,2.70
2022-12-16T20:52:31.381Z,2.65
2022-12-16T20:55:16.953Z,2.69
2022-12-16T20:58:02.354Z,2.75
2022-12-16T21:00:47.508Z,2.78
2022-12-16T21:03:32.854Z,2.82
2022-12-16T21:06:18.424Z,2.91
2022-12-16T21:09:04.012Z,2.82
2022-12-16T21:11:49.334Z,2.71
2022-12-16T21:14:34.797Z,2.61
2022-12-16T21:17:20.096Z,2.61
2022-12-16T21:20:06.262Z,2.66
2022-12-16T21:22:51.668Z,2.51
2022-12-16T21:25:38.504Z,2.31
2022-12-16T21:28:24.056Z,2.30
2022-12-16T21:31:09.374Z,2.40
2022-12-16T21:33:55.470Z,2.46
2022-12-16T21:36:41.063Z,2.51
2022-12-16T21:39:26.184Z,2.52
2022-12-16T21:42:11.480Z,2.43
2022-12-16T21:44:56.804Z,2.37
2022-12-16T21:47:42.402Z,2.40
2022-12-16T21:50:28.326Z,2.28
2022-12-16T21:53:13.647Z,2.28
2022-12-16T21:55:59.094Z,2.27
2022-12-16T21:58:44.412Z,2.31
2022-12-16T22:01:29.736Z,2.38
2022-12-16T22:04:15.197Z,2.30
2022-12-16T22:07:00.375Z,2.31
2022-12-16T22:09:45.748Z,2.29
2022-12-16T22:12:31.118Z,2.27
2022-12-16T22:15:16.411Z,2.31
2022-12-16T22:18:01.869Z,2.29
2022-12-16T22:20:47.312Z,2.29
2022-12-16T22:23:32.891Z,2.27
2022-12-16T22:26:19.524Z,2.08
2022-12-16T22:29:05.540Z,2.12
2022-12-16T22:31:50.768Z,2.28
2022-12-16T22:34:37.103Z,2.31
2022-12-16T22:37:22.796Z,2.34
2022-12-16T22:40:08.255Z,2.41
2022-12-16T22:42:53.300Z,2.44
2022-12-16T22:45:40.773Z,2.24
2022-12-16T22:48:26.083Z,2.18
2022-12-16T22:51:11.642Z,2.21
2022-12-16T22:53:57.134Z,2.35
2022-12-16T22:56:42.323Z,2.38
2022-12-16T22:59:27.746Z,2.34
2022-12-16T23:02:13.090Z,2.38
2022-12-16T23:05:00.423Z,2.42
2022-12-16T23:07:45.614Z,2.44
2022-12-16T23:10:31.063Z,2.36
2022-12-16T23:13:16.320Z,2.21
2022-12-16T23:16:01.774Z,2.18
2022-12-16T23:18:47.500Z,2.08
2022-12-16T23:21:37.044Z,1.89
2022-12-16T23:24:22.818Z,1.93
2022-12-16T23:27:08.066Z,1.82
2022-12-16T23:29:53.448Z,1.65
2022-12-16T23:32:42.846Z,1.68
2022-12-16T23:35:28.203Z,1.57
2022-12-16T23:38:24.127Z,1.69
2022-12-16T23:41:16.858Z,1.63
2022-12-16T23:44:03.254Z,1.55
2022-12-16T23:46:48.749Z,1.46
2022-12-16T23:49:34.029Z,1.50
2022-12-16T23:52:19.127Z,1.55
2022-12-16T23:55:04.369Z,1.50
2022-12-16T23:57:49.646Z,1.64
